Time;durP1;ratioP1;P1;durP2;ratioP2;P2;SDS_P1;SDS_P2;PMS_P1;PMS_P2;Temp;Humidity;BMP_temperature;BMP_pressure;BME280_temperature;BME280_humidity;BME280_pressure;Samples;Min_cycle;Max_cycle;Signal;HPM_P1;HPM_P2
2021/07/19 00:01:47;;;;;;;3.60;3.03;;;20.10;99.90;;;19.97;97.37;101638.38;4170794;28;20112;-75
2021/07/19 00:03:48;;;;;;;3.65;3.08;;;20.00;99.90;;;19.91;97.22;101628.44;4169570;28;20532;-75
2021/07/19 00:05:49;;;;;;;5.70;3.38;;;20.00;99.90;;;19.89;97.41;101632.13;4186131;28;20037;-75
2021/07/19 00:07:50;;;;;;;4.53;3.55;;;20.00;99.90;;;19.85;97.40;101630.88;4169512;28;20451;-75
2021/07/19 00:09:51;;;;;;;4.72;4.00;;;20.00;99.90;;;19.85;97.44;101628.19;4170465;28;20072;-75
2021/07/19 00:11:52;;;;;;;4.43;3.50;;;19.90;99.90;;;19.84;97.62;101626.53;4170543;28;20362;-75
2021/07/19 00:13:53;;;;;;;3.65;3.17;;;20.00;99.90;;;19.79;97.62;101623.63;4169343;28;20536;-75
2021/07/19 00:15:54;;;;;;;4.85;3.58;;;19.90;99.90;;;19.87;97.83;101633.34;4186032;28;20024;-75
2021/07/19 00:17:56;;;;;;;3.95;3.45;;;19.90;99.90;;;19.85;97.68;101624.69;4169281;28;20575;-75
2021/07/19 00:19:57;;;;;;;6.82;3.92;;;19.90;99.90;;;19.84;97.52;101633.72;4169321;28;20026;-75
2021/07/19 00:21:58;;;;;;;6.05;3.72;;;19.90;99.90;;;19.74;97.71;101625.22;4169096;28;20071;-75
2021/07/19 00:23:59;;;;;;;4.97;3.60;;;19.90;99.90;;;19.75;98.04;101625.03;4185430;28;20021;-75
2021/07/19 00:26:00;;;;;;;5.43;3.45;;;19.80;99.90;;;19.71;98.36;101621.06;4169030;28;20029;-75
2021/07/19 00:28:03;;;;;;;7.63;3.78;;;19.80;99.90;;;19.73;98.23;101637.78;4179366;28;20037;-75
2021/07/19 00:30:06;;;;;;;4.38;3.53;;;19.80;99.90;;;19.71;98.31;101633.66;4170197;28;20440;-75
2021/07/19 00:32:07;;;;;;;6.25;3.80;;;19.80;99.90;;;19.71;98.32;101633.66;4152255;28;20050;-75
2021/07/19 00:34:08;;;;;;;5.53;3.83;;;19.80;99.90;;;19.86;97.04;101631.72;4169158;28;20030;-75
2021/07/19 00:36:10;;;;;;;5.88;4.07;;;19.80;99.90;;;19.78;96.90;101630.00;4169019;28;20024;-75
2021/07/19 00:38:11;;;;;;;5.18;3.80;;;19.80;99.90;;;19.77;96.92;101631.00;4168783;28;20037;-75
2021/07/19 00:40:17;;;;;;;4.72;3.53;;;19.80;99.90;;;19.73;97.02;101637.78;4169171;28;20064;-75
2021/07/19 00:42:18;;;;;;;7.07;3.92;;;19.80;99.90;;;19.71;96.97;101630.97;4185213;28;20052;-75
2021/07/19 00:44:20;;;;;;;6.65;3.80;;;19.80;99.90;;;19.63;97.44;101634.59;4168928;28;20025;-75
2021/07/19 00:46:21;;;;;;;4.10;3.70;;;19.70;99.90;;;19.59;97.61;101630.66;4185305;28;20091;-75
2021/07/19 00:48:22;;;;;;;5.70;3.97;;;19.70;99.90;;;19.58;97.71;101625.50;4168948;28;20029;-75
2021/07/19 00:50:25;;;;;;;5.28;3.88;;;19.70;99.90;;;19.53;97.80;101628.78;4168872;28;20517;-75
2021/07/19 00:52:26;;;;;;;5.35;4.25;;;19.70;99.90;;;19.55;98.32;101636.59;4168677;28;20040;-75
2021/07/19 00:54:30;;;;;;;4.97;3.67;;;19.60;99.90;;;19.57;97.85;101627.34;4168430;28;20060;-75
2021/07/19 00:56:33;;;;;;;5.15;3.90;;;19.60;99.90;;;19.61;97.16;101631.31;4185289;28;20100;-75
2021/07/19 00:58:38;;;;;;;6.28;4.22;;;19.70;99.90;;;19.56;97.38;101628.34;4168652;28;20041;-75
2021/07/19 01:00:50;;;;;;;4.75;3.60;;;19.60;99.90;;;19.52;97.47;101632.47;4168621;28;20108;-75
2021/07/19 01:02:53;;;;;;;6.60;4.22;;;19.60;99.90;;;19.47;97.76;101626.03;4168872;28;20551;-75
2021/07/19 01:04:55;;;;;;;5.78;4.18;;;19.60;99.90;;;19.53;97.41;101635.97;4168657;28;20032;-75
2021/07/19 01:07:02;;;;;;;6.45;3.75;;;19.50;99.90;;;19.46;97.44;101630.56;4168639;28;20064;-75
2021/07/19 01:09:06;;;;;;;4.05;3.50;;;19.50;99.90;;;19.43;97.46;101625.59;4168172;28;20123;-75
2021/07/19 01:11:06;;;;;;;7.70;4.18;;;19.50;99.90;;;19.38;97.57;101627.97;4168548;28;20029;-75
2021/07/19 01:13:08;;;;;;;3.63;3.30;;;19.50;99.90;;;19.31;97.52;101633.28;4185039;28;20036;-75
2021/07/19 01:15:10;;;;;;;7.15;3.97;;;19.50;99.90;;;19.21;98.32;101635.41;4168222;28;20026;-75
2021/07/19 01:17:11;;;;;;;4.60;3.85;;;19.40;99.90;;;19.18;98.52;101638.47;4169685;28;20410;-75
2021/07/19 01:19:13;;;;;;;4.72;3.65;;;19.30;99.90;;;19.15;98.58;101632.66;4168315;28;20025;-75
2021/07/19 01:22:03;;;;;;;5.63;3.50;;;19.30;99.90;;;19.20;98.30;101630.28;4168415;28;20471;-75
2021/07/19 01:24:40;;;;;;;5.80;4.15;;;19.20;99.90;;;19.13;98.47;101634.72;4184185;28;20446;-75
2021/07/19 01:27:13;;;;;;;3.92;3.55;;;19.20;99.90;;;19.09;98.57;101638.78;4169301;28;20029;-75
2021/07/19 01:29:18;;;;;;;4.95;4.38;;;19.20;99.90;;;19.05;98.96;101632.19;4169408;28;20037;-75
2021/07/19 01:31:28;;;;;;;6.72;4.07;;;19.10;99.90;;;19.02;99.18;101624.53;4168043;28;20452;-75
2021/07/19 01:33:31;;;;;;;4.32;3.85;;;19.10;99.90;;;18.96;99.69;101630.63;4168280;28;20026;-75
2021/07/19 01:35:37;;;;;;;5.32;3.90;;;19.10;99.90;;;18.92;100.00;101632.03;4168317;28;20087;-75
2021/07/19 01:37:40;;;;;;;5.25;3.90;;;19.00;99.90;;;18.93;100.00;101625.66;4168207;28;20057;-75
2021/07/19 01:39:41;;;;;;;6.45;4.38;;;19.00;99.90;;;18.96;99.81;101636.81;4167760;28;20096;-75
2021/07/19 01:41:44;;;;;;;6.00;4.28;;;19.00;99.90;;;18.95;99.84;101631.63;4167768;28;20076;-75
2021/07/19 01:43:47;;;;;;;5.65;4.30;;;19.00;99.90;;;18.91;99.92;101630.34;4183795;28;20075;-75
2021/07/19 01:45:49;;;;;;;5.57;4.37;;;19.00;99.90;;;18.88;99.68;101623.53;4151636;28;20520;-75
2021/07/19 01:47:51;;;;;;;5.90;4.07;;;19.00;99.90;;;18.85;99.94;101620.41;4168126;28;20044;-75
2021/07/19 01:49:53;;;;;;;5.38;4.00;;;18.90;99.90;;;18.83;99.69;101614.44;4184445;28;20021;-75
2021/07/19 01:51:54;;;;;;;6.28;4.65;;;18.90;99.90;;;18.79;99.99;101617.47;4167721;28;20029;-75
2021/07/19 01:53:58;;;;;;;6.30;4.70;;;18.90;99.90;;;18.77;100.00;101624.88;4151153;28;20061;-75
2021/07/19 01:55:59;;;;;;;6.60;4.07;;;18.90;99.90;;;18.70;100.00;101625.78;4184338;28;20028;-75
2021/07/19 01:58:01;;;;;;;6.65;4.32;;;18.80;99.90;;;18.72;100.00;101629.97;4167685;28;20029;-75
2021/07/19 02:00:07;;;;;;;5.32;4.25;;;18.80;99.90;;;18.72;100.00;101616.59;4167826;28;20036;-75
2021/07/19 02:02:10;;;;;;;5.10;4.05;;;18.80;99.90;;;18.71;100.00;101614.94;4183981;28;20115;-76
2021/07/19 02:04:11;;;;;;;5.32;4.03;;;18.80;99.90;;;18.69;100.00;101616.97;4167395;28;20477;-75
2021/07/19 02:06:13;;;;;;;5.35;3.97;;;18.80;99.90;;;18.63;100.00;101623.06;4168814;28;20022;-75
2021/07/19 02:08:17;;;;;;;5.53;3.95;;;18.70;99.90;;;18.62;100.00;101626.75;4168514;28;20525;-75
2021/07/19 02:10:18;;;;;;;6.22;4.35;;;18.70;99.90;;;18.57;100.00;101623.81;4167544;28;20025;-75
2021/07/19 02:12:20;;;;;;;5.30;4.18;;;18.70;99.90;;;18.61;100.00;101622.41;4167390;28;20578;-75
2021/07/19 02:14:21;;;;;;;4.47;3.88;;;18.70;99.90;;;18.64;100.00;101630.03;4167576;28;20083;-75
2021/07/19 02:16:23;;;;;;;4.28;3.70;;;18.70;99.90;;;18.57;100.00;101631.00;4167764;28;20079;-75
2021/07/19 02:18:26;;;;;;;5.22;4.22;;;18.70;99.90;;;18.53;100.00;101627.03;4151083;28;20032;-75
2021/07/19 02:20:28;;;;;;;5.50;4.10;;;18.60;99.90;;;18.52;100.00;101622.69;4182215;28;20036;-75
2021/07/19 02:22:30;;;;;;;5.47;4.15;;;18.60;99.90;;;18.53;100.00;101617.19;4168740;28;20028;-75
2021/07/19 02:24:32;;;;;;;5.45;4.40;;;18.60;99.90;;;18.48;100.00;101619.56;4167235;28;20116;-75
2021/07/19 02:26:34;;;;;;;7.50;4.40;;;18.60;99.90;;;18.51;100.00;101626.41;4162747;28;20025;-75
2021/07/19 02:28:35;;;;;;;7.07;4.28;;;18.60;99.90;;;18.48;100.00;101619.56;4167212;28;20039;-75
2021/07/19 02:30:37;;;;;;;6.32;4.43;;;18.60;99.90;;;18.54;100.00;101618.84;4167461;28;20412;-75
2021/07/19 02:32:44;;;;;;;6.22;3.92;;;18.60;99.90;;;18.52;100.00;101615.50;4150752;28;20036;-75
2021/07/19 02:34:46;;;;;;;5.25;4.45;;;18.60;99.90;;;18.57;100.00;101618.47;4167322;28;20497;-75
2021/07/19 02:36:48;;;;;;;7.07;4.30;;;18.60;99.90;;;18.50;100.00;101622.88;4167036;28;20035;-75
2021/07/19 02:38:52;;;;;;;4.97;4.15;;;18.60;99.90;;;18.43;100.00;101613.91;4150656;28;20041;-75
2021/07/19 02:40:53;;;;;;;;;;;18.50;99.90;;;18.40;100.00;101619.63;4151168;28;20030;-75
2021/07/19 02:43:01;;;;;;;5.53;3.80;;;18.50;99.90;;;18.32;100.00;101611.72;4179900;28;19971;-75
2021/07/19 02:45:16;;;;;;;6.00;4.63;;;18.50;99.90;;;18.34;100.00;101622.25;4167527;28;20026;-75
2021/07/19 02:47:18;;;;;;;6.90;4.50;;;18.50;99.90;;;18.32;100.00;101614.41;4167333;28;20036;-75
2021/07/19 02:49:19;;;;;;;4.95;4.30;;;18.40;99.90;;;18.35;100.00;101627.38;4167157;28;20025;-75
2021/07/19 02:51:22;;;;;;;6.63;4.32;;;18.40;99.90;;;18.30;100.00;101616.44;4183485;28;20028;-75
2021/07/19 02:53:30;;;;;;;8.20;4.28;;;18.40;99.90;;;18.27;100.00;101624.81;4167474;28;20520;-76
2021/07/19 02:55:32;;;;;;;5.93;3.92;;;18.40;99.90;;;18.27;100.00;101616.81;4173819;28;20389;-75
2021/07/19 02:57:36;;;;;;;4.50;4.05;;;18.40;99.90;;;18.37;100.00;101617.34;4172362;28;20053;-76
2021/07/19 02:59:37;;;;;;;5.00;4.25;;;18.40;99.90;;;18.38;100.00;101626.19;4172313;28;20029;-75
2021/07/19 03:01:39;;;;;;;5.38;4.40;;;18.40;99.90;;;18.43;100.00;101631.81;4189124;28;20075;-75
2021/07/19 03:03:43;;;;;;;5.40;4.10;;;18.40;99.90;;;18.40;100.00;101622.31;4172583;28;20033;-76
2021/07/19 03:05:51;;;;;;;5.57;4.10;;;18.50;99.90;;;18.40;100.00;101624.16;4172464;28;20033;-76
2021/07/19 03:07:56;;;;;;;6.75;3.70;;;18.50;99.90;;;18.36;100.00;101636.22;4172261;28;20041;-75
2021/07/19 03:10:00;;;;;;;4.53;3.95;;;18.40;99.90;;;18.33;100.00;101629.41;4172658;28;20516;-75
2021/07/19 03:12:02;;;;;;;7.40;4.80;;;18.40;99.90;;;18.37;100.00;101630.69;4172306;28;20061;-75
2021/07/19 03:14:08;;;;;;;4.20;3.65;;;18.40;99.90;;;18.30;100.00;101629.78;4172329;28;20052;-75
2021/07/19 03:16:11;;;;;;;5.53;4.30;;;18.40;99.90;;;18.37;100.00;101633.34;4172345;28;20401;-76
2021/07/19 03:18:12;;;;;;;5.70;4.30;;;18.40;99.90;;;18.25;100.00;101618.81;4172297;28;20033;-75
2021/07/19 03:20:14;;;;;;;8.95;4.63;;;18.40;99.90;;;18.20;100.00;101630.06;4172337;28;20026;-76
2021/07/19 03:22:17;;;;;;;9.13;5.00;;;18.40;99.90;;;18.20;100.00;101623.88;4172512;28;20033;-75
2021/07/19 03:24:19;;;;;;;7.60;5.05;;;18.30;99.90;;;18.34;100.00;101620.38;4172078;28;20091;-75
2021/07/19 03:26:21;;;;;;;6.45;4.65;;;18.30;99.90;;;18.33;100.00;101621.41;4172369;28;20025;-76
2021/07/19 03:28:23;;;;;;;5.72;4.22;;;18.40;99.90;;;18.27;100.00;101622.16;4172292;28;20025;-75
2021/07/19 03:30:24;;;;;;;5.45;4.22;;;18.30;99.90;;;18.23;100.00;101619.00;4172396;28;20025;-75
2021/07/19 03:32:26;;;;;;;6.40;4.18;;;18.30;99.90;;;18.23;100.00;101623.50;4172280;28;20033;-75
2021/07/19 03:34:28;;;;;;;5.95;3.90;;;18.40;99.90;;;18.21;100.00;101614.88;4173428;28;20029;-76
2021/07/19 03:36:31;;;;;;;6.72;4.05;;;18.30;99.90;;;18.35;100.00;101624.72;4172114;28;20023;-76
2021/07/19 03:38:33;;;;;;;5.82;3.90;;;18.30;99.90;;;18.32;100.00;101618.91;4172017;28;20133;-75
2021/07/19 03:40:36;;;;;;;7.20;4.00;;;18.40;99.90;;;18.31;100.00;101620.75;4155748;28;20496;-76
2021/07/19 03:42:37;;;;;;;5.93;4.30;;;18.40;99.90;;;18.33;100.00;101616.06;4171972;28;20622;-75
2021/07/19 03:44:40;;;;;;;6.85;4.25;;;18.40;99.90;;;18.25;100.00;101605.44;4172067;28;20041;-75
2021/07/19 03:46:43;;;;;;;5.20;4.20;;;18.30;99.90;;;18.23;100.00;101611.00;4172270;28;20028;-75
2021/07/19 03:48:44;;;;;;;5.87;4.33;;;18.30;99.90;;;18.20;100.00;101606.03;4172240;28;20067;-75
2021/07/19 03:50:47;;;;;;;5.75;4.70;;;18.30;99.90;;;18.22;100.00;101613.84;4172107;28;20359;-75
2021/07/19 03:52:51;;;;;;;6.00;4.43;;;18.30;99.90;;;18.16;100.00;101614.56;4188322;28;20048;-75
2021/07/19 03:54:51;;;;;;;11.23;5.22;;;18.30;99.90;;;18.23;100.00;101611.00;4155911;28;20823;-75
2021/07/19 03:56:53;;;;;;;5.57;4.40;;;18.30;99.90;;;18.24;100.00;101614.50;4173368;28;20044;-75
2021/07/19 03:58:57;;;;;;;5.70;4.13;;;18.30;99.90;;;18.21;100.00;101618.38;4171991;28;20033;-75
2021/07/19 04:01:00;;;;;;;6.32;3.90;;;18.30;99.90;;;18.19;100.00;101614.19;4171885;28;20093;-75
2021/07/19 04:03:16;;;;;;;6.22;4.20;;;18.30;99.90;;;18.14;100.00;101606.75;4172102;28;20033;-75
2021/07/19 04:05:21;;;;;;;8.55;4.70;;;18.30;99.90;;;18.21;100.00;101618.38;4170873;28;20057;-75
2021/07/19 04:07:22;;;;;;;6.82;4.13;;;18.30;99.90;;;18.12;100.00;101605.28;4152971;28;20069;-75
2021/07/19 04:09:23;;;;;;;4.45;4.00;;;18.20;99.90;;;18.08;100.00;101598.66;4170487;28;20116;-75
2021/07/19 04:11:25;;;;;;;7.57;4.85;;;18.20;99.90;;;18.19;100.00;101606.19;4169510;28;20033;-75
2021/07/19 04:13:29;;;;;;;8.63;4.35;;;18.30;99.90;;;18.23;100.00;101607.50;4185861;28;20036;-75
2021/07/19 04:15:30;;;;;;;5.45;4.50;;;18.30;99.90;;;18.16;100.00;101596.72;4169346;28;20080;-75
2021/07/19 04:17:31;;;;;;;5.38;4.15;;;18.20;99.90;;;18.12;100.00;101606.13;4169561;28;20029;-75
2021/07/19 04:19:33;;;;;;;4.72;3.85;;;18.20;99.90;;;18.15;100.00;101602.25;4185740;28;20119;-75
2021/07/19 04:21:34;;;;;;;4.30;3.88;;;18.20;99.90;;;18.04;100.00;101594.72;4169381;28;20017;-75
2021/07/19 04:23:36;;;;;;;7.50;5.10;;;18.20;99.90;;;17.95;100.00;101590.47;4185347;28;20029;-75
2021/07/19 04:25:39;;;;;;;6.88;4.88;;;18.20;99.90;;;18.01;100.00;101598.53;4169260;28;20035;-75
2021/07/19 04:27:43;;;;;;;5.53;4.18;;;18.10;99.90;;;18.00;100.00;101596.91;4169188;28;20033;-75
2021/07/19 04:29:49;;;;;;;5.25;4.60;;;18.20;99.90;;;18.00;100.00;101596.06;4152724;28;20029;-76
2021/07/19 04:31:55;;;;;;;7.10;5.25;;;18.10;99.90;;;18.03;100.00;101596.53;4169041;28;20036;-75
2021/07/19 04:33:56;;;;;;;6.57;4.70;;;18.10;99.90;;;18.00;100.00;101594.25;4169230;28;20036;-75
2021/07/19 04:35:57;;;;;;;5.55;4.32;;;18.10;99.90;;;18.00;100.00;101599.59;4170318;28;20033;-75
2021/07/19 04:37:58;;;;;;;4.60;4.13;;;18.10;99.90;;;17.97;100.00;101596.44;4168785;28;20029;-76
2021/07/19 04:40:01;;;;;;;5.95;4.32;;;18.10;99.90;;;17.96;100.00;101594.78;4185430;28;20045;-75
2021/07/19 04:42:04;;;;;;;5.03;3.83;;;18.10;99.90;;;18.01;100.00;101589.75;4170116;28;20057;-75
2021/07/19 04:44:05;;;;;;;5.65;4.43;;;18.10;99.90;;;18.03;100.00;101590.38;4152577;28;20069;-75
2021/07/19 04:46:06;;;;;;;4.63;3.30;;;18.10;99.90;;;17.99;100.00;101583.72;4168841;28;20116;-75
2021/07/19 04:48:08;;;;;;;6.28;4.25;;;18.10;99.90;;;17.95;100.00;101585.13;4169079;28;20068;-75
2021/07/19 04:50:12;;;;;;;7.55;3.92;;;18.10;99.90;;;17.98;100.00;101590.09;4168974;28;20026;-75
2021/07/19 04:52:13;;;;;;;6.85;5.28;;;18.10;99.90;;;18.03;100.00;101582.38;4145631;28;20026;-75
2021/07/19 04:54:21;;;;;;;7.07;4.50;;;18.10;99.90;;;18.06;100.00;101590.00;4168405;28;20029;-75
2021/07/19 04:56:23;;;;;;;5.95;4.30;;;18.20;99.90;;;18.02;100.00;101586.03;4185147;28;20452;-75
2021/07/19 04:58:27;;;;;;;5.13;4.22;;;18.20;99.90;;;18.06;100.00;101582.81;4168641;28;20073;-75
2021/07/19 05:00:29;;;;;;;;;;;18.20;99.90;;;18.05;100.00;101585.66;4152689;28;20033;-75
2021/07/19 05:02:32;;;;;;;6.70;4.55;;;18.20;99.90;;;18.09;100.00;101581.63;4168552;28;20369;-75
2021/07/19 05:04:34;;;;;;;6.07;5.28;;;18.20;99.90;;;18.20;100.00;101589.16;4168771;28;20527;-75
2021/07/19 05:06:36;;;;;;;7.68;5.00;;;18.30;99.90;;;18.21;100.00;101590.84;4168560;28;20120;-75
2021/07/19 05:08:39;;;;;;;6.45;4.43;;;18.30;99.90;;;18.25;100.00;101584.09;4168386;28;20035;-75
2021/07/19 05:10:41;;;;;;;7.23;5.77;;;18.30;99.90;;;18.31;100.00;101580.66;4168708;28;20491;-75
2021/07/19 05:12:46;;;;;;;5.65;4.20;;;18.40;99.90;;;18.32;100.00;101590.34;4168413;28;20025;-75
2021/07/19 05:14:49;;;;;;;5.57;4.93;;;18.40;99.90;;;18.28;100.00;101588.25;4168532;28;20033;-75
2021/07/19 05:16:50;;;;;;;7.72;4.35;;;18.40;99.90;;;18.32;100.00;101585.00;4169556;28;20527;-75
2021/07/19 05:18:52;;;;;;;6.13;4.20;;;18.50;99.90;;;18.34;100.00;101584.84;4168469;28;20053;-75
2021/07/19 05:20:54;;;;;;;5.60;4.55;;;18.50;99.90;;;18.34;100.00;101585.66;4185104;28;20080;-75
2021/07/19 05:22:55;;;;;;;6.20;4.43;;;18.50;99.90;;;18.41;100.00;101589.25;4168217;28;20037;-76
2021/07/19 05:24:57;;;;;;;6.95;5.00;;;18.60;99.90;;;18.58;100.00;101588.03;4184967;28;20037;-75
2021/07/19 05:26:58;;;;;;;5.97;4.80;;;18.60;99.90;;;18.59;100.00;101587.03;4184954;28;20029;-75
2021/07/19 05:29:00;;;;;;;8.57;5.63;;;18.70;99.90;;;18.64;100.00;101584.63;4168575;28;20445;-75
2021/07/19 05:31:01;;;;;;;6.05;4.97;;;18.70;99.90;;;18.63;100.00;101587.50;4168615;28;20586;-75
2021/07/19 05:33:02;;;;;;;10.45;5.95;;;18.80;99.90;;;18.75;100.00;101586.81;4168091;28;20025;-75
2021/07/19 05:35:04;;;;;;;6.45;5.15;;;18.90;99.90;;;18.76;100.00;101582.28;4168225;28;20075;-75
2021/07/19 05:37:06;;;;;;;5.78;4.30;;;18.90;99.90;;;18.81;100.00;101590.56;4159375;28;20560;-76
2021/07/19 05:39:06;;;;;;;5.68;4.47;;;18.90;99.90;;;18.90;100.00;101586.78;4168213;28;20067;-75
2021/07/19 05:41:09;;;;;;;8.65;5.00;;;19.00;99.90;;;18.97;100.00;101593.00;4167894;28;20105;-76
2021/07/19 05:43:11;;;;;;;7.40;5.03;;;19.10;99.90;;;19.12;100.00;101592.94;4151533;28;20056;-75
2021/07/19 05:45:14;;;;;;;9.15;5.97;;;19.20;99.90;;;19.07;100.00;101598.88;4169365;28;20093;-75
2021/07/19 05:47:15;;;;;;;6.13;5.07;;;19.20;99.90;;;19.15;100.00;101597.91;4168111;28;20493;-76
2021/07/19 05:49:17;;;;;;;7.20;5.00;;;19.30;99.90;;;19.29;100.00;101602.38;4169171;28;20042;-75
2021/07/19 05:51:18;;;;;;;8.90;5.85;;;19.40;99.90;;;19.22;100.00;101604.16;4167927;28;20528;-76
2021/07/19 05:53:18;;;;;;;9.93;5.47;;;19.40;99.90;;;19.28;100.00;101601.53;4167569;28;20048;-75
2021/07/19 05:55:19;;;;;;;11.35;4.85;;;19.50;99.90;;;19.21;100.00;101597.97;4167746;28;20026;-76
2021/07/19 05:57:20;;;;;;;5.85;4.90;;;19.50;99.90;;;19.27;100.00;101593.69;4169251;28;20481;-75
2021/07/19 05:59:21;;;;;;;6.55;5.15;;;19.50;99.90;;;19.21;100.00;101595.28;4151434;28;20033;-75
2021/07/19 06:01:22;;;;;;;7.18;4.78;;;19.50;99.90;;;19.30;100.00;101593.31;4168806;28;20504;-76
2021/07/19 06:03:23;;;;;;;9.43;5.28;;;19.60;99.90;;;19.43;99.78;101588.13;4168858;28;20060;-75
2021/07/19 06:05:24;;;;;;;8.25;4.95;;;19.60;99.90;;;19.39;100.00;101586.84;4167702;28;20037;-75
2021/07/19 06:07:25;;;;;;;6.80;4.38;;;19.60;99.90;;;19.41;100.00;101594.69;4183991;28;20025;-76
2021/07/19 06:09:26;;;;;;;6.43;4.72;;;19.60;99.90;;;19.48;100.00;101595.56;4168568;28;20033;-76
2021/07/19 06:11:27;;;;;;;7.70;5.22;;;19.70;99.90;;;19.55;100.00;101591.94;4168767;28;20032;-76
2021/07/19 06:13:27;;;;;;;6.75;5.00;;;19.80;99.90;;;19.62;99.27;101595.47;4168773;28;20460;-76
2021/07/19 06:15:29;;;;;;;5.47;4.80;;;19.90;99.90;;;19.63;99.36;101588.25;4167470;28;20381;-76
2021/07/19 06:17:31;;;;;;;6.53;4.80;;;19.90;99.90;;;19.78;98.30;101589.81;4167289;28;20108;-76
2021/07/19 06:19:32;;;;;;;7.03;4.55;;;20.00;99.90;;;19.80;98.19;101595.81;4167642;28;20520;-76
2021/07/19 06:21:33;;;;;;;11.10;5.32;;;20.10;99.90;;;19.80;98.08;101600.34;4167473;28;20095;-76
2021/07/19 06:23:34;;;;;;;7.53;4.30;;;20.10;99.90;;;19.91;97.88;101597.13;4183301;28;20076;-76
2021/07/19 06:25:37;;;;;;;7.03;4.80;;;20.20;99.90;;;19.92;97.54;101597.97;4167302;28;20033;-75
2021/07/19 06:27:39;;;;;;;11.35;4.53;;;20.20;99.90;;;19.96;97.48;101591.16;4165474;28;20018;-75
2021/07/19 06:29:40;;;;;;;5.85;4.78;;;20.30;99.90;;;20.05;97.53;101598.84;4165638;28;20029;-75
2021/07/19 06:31:41;;;;;;;7.28;4.50;;;20.30;99.90;;;20.05;97.94;101596.19;4166613;28;20524;-75
2021/07/19 06:33:41;;;;;;;10.40;4.90;;;20.40;99.90;;;20.05;96.95;101592.66;4168034;28;20029;-75
2021/07/19 06:35:42;;;;;;;7.72;4.97;;;20.40;99.90;;;20.14;96.49;101586.13;4166945;28;20056;-77
2021/07/19 06:37:43;;;;;;;9.15;5.20;;;20.50;99.90;;;20.24;96.84;101591.97;4167872;28;20110;-77
2021/07/19 06:39:44;;;;;;;5.97;4.22;;;20.50;99.90;;;20.27;96.64;101584.38;4166691;28;20112;-77
2021/07/19 06:41:46;;;;;;;7.78;4.70;;;20.60;99.90;;;20.28;96.41;101583.34;4167628;28;20525;-74
2021/07/19 06:43:47;;;;;;;6.88;4.63;;;20.60;99.90;;;20.23;96.71;101587.63;4166803;28;20033;-75
2021/07/19 06:45:48;;;;;;;6.82;4.53;;;20.60;99.90;;;20.34;96.65;101581.72;4183337;28;20036;-75
2021/07/19 06:47:48;;;;;;;9.15;5.20;;;20.70;99.90;;;20.43;96.42;101586.72;4150346;28;20539;-75
2021/07/19 06:49:49;;;;;;;6.60;5.13;;;20.70;99.90;;;20.39;96.54;101569.41;4167949;28;20496;-77
2021/07/19 06:51:50;;;;;;;9.88;4.50;;;20.80;99.90;;;20.47;96.13;101587.16;4166322;28;20021;-76
2021/07/19 06:53:51;;;;;;;8.48;4.25;;;20.80;99.90;;;20.48;96.06;101570.03;4147838;28;20118;-76
2021/07/19 06:55:52;;;;;;;7.53;4.38;;;20.90;99.90;;;20.59;95.32;101576.66;4179532;28;20432;-75
2021/07/19 06:57:53;;;;;;;6.85;4.85;;;21.00;99.90;;;20.48;95.49;101556.66;4166886;28;20060;-75
2021/07/19 06:59:55;;;;;;;9.63;4.72;;;21.00;99.90;;;20.62;94.50;101582.47;4168297;28;20385;-75
2021/07/19 07:01:56;;;;;;;6.80;4.85;;;21.00;99.90;;;20.65;94.18;101567.81;4167025;28;20401;-75
2021/07/19 07:03:56;;;;;;;4.78;4.28;;;21.10;99.90;;;20.76;94.17;101568.06;4168134;28;20119;-75
2021/07/19 07:05:57;;;;;;;7.20;4.85;;;21.20;99.90;;;20.81;93.01;101580.88;4150310;28;20034;-75
2021/07/19 07:07:58;;;;;;;6.13;4.57;;;21.30;99.90;;;20.86;92.72;101571.19;4183253;28;20091;-75
2021/07/19 07:09:59;;;;;;;8.55;5.03;;;21.30;99.90;;;20.91;91.44;101573.25;4167208;28;20037;-75
2021/07/19 07:12:00;;;;;;;8.50;4.35;;;21.40;99.90;;;21.02;90.94;101574.50;4166752;28;20107;-75
2021/07/19 07:14:02;;;;;;;8.10;4.03;;;21.50;99.90;;;21.02;91.53;101569.16;4150200;28;20489;-75
2021/07/19 07:16:03;;;;;;;6.43;4.70;;;21.50;99.90;;;21.08;91.74;101565.66;4157136;28;20029;-75
2021/07/19 07:18:08;;;;;;;5.82;4.55;;;21.50;99.90;;;21.15;92.21;101579.91;4166376;28;20547;-75
2021/07/19 07:20:11;;;;;;;6.20;4.53;;;21.60;99.90;;;21.15;92.33;101578.06;4168009;28;20026;-74
2021/07/19 07:22:12;;;;;;;8.52;4.78;;;21.60;99.90;;;21.17;91.68;101562.59;4166398;28;20677;-77
2021/07/19 07:24:13;;;;;;;7.13;5.07;;;21.60;99.90;;;21.25;89.60;101574.97;4165586;28;20108;-76
2021/07/19 07:26:14;;;;;;;9.40;4.97;;;21.70;99.90;;;21.38;88.49;101572.31;4167902;28;20034;-76
2021/07/19 07:28:15;;;;;;;7.20;4.20;;;21.80;99.90;;;21.47;88.97;101573.75;4183131;28;20528;-76
2021/07/19 07:30:16;;;;;;;10.55;5.57;;;21.90;99.90;;;21.53;87.06;101575.63;4167957;28;20041;-76
2021/07/19 07:32:18;;;;;;;5.47;4.60;;;22.00;99.90;;;21.60;86.95;101580.97;4167923;28;20496;-76
2021/07/19 07:34:18;;;;;;;8.52;4.80;;;22.10;99.90;;;21.60;87.61;101571.03;4167993;28;20072;-76
2021/07/19 07:36:19;;;;;;;12.45;4.88;;;22.10;99.90;;;21.71;87.76;101575.81;4166522;28;20029;-76
2021/07/19 07:38:21;;;;;;;10.75;5.20;;;22.20;99.90;;;21.79;87.07;101575.59;4166220;28;20490;-77
2021/07/19 07:40:22;;;;;;;5.40;4.68;;;22.30;99.90;;;21.90;87.48;101574.97;4183338;28;20017;-76
2021/07/19 07:42:23;;;;;;;8.30;4.95;;;22.30;99.90;;;21.91;87.68;101573.94;4169497;28;20048;-76
2021/07/19 07:44:25;;;;;;;8.40;4.47;;;22.40;99.90;;;22.07;88.09;101588.78;4186260;28;20033;-76
2021/07/19 07:46:26;;;;;;;7.25;4.35;;;22.50;99.90;;;22.07;88.77;101574.53;4169768;28;20037;-76
2021/07/19 07:48:29;;;;;;;5.78;4.03;;;22.50;99.90;;;22.07;86.69;101583.41;4169807;28;20079;-76
2021/07/19 07:50:30;;;;;;;7.35;4.55;;;22.60;99.90;;;22.10;85.46;101577.63;4169525;28;20025;-76
2021/07/19 07:52:31;;;;;;;6.28;4.35;;;22.70;99.90;;;22.22;85.53;101585.84;4169433;28;20544;-76
2021/07/19 07:54:32;;;;;;;7.63;4.65;;;22.70;99.90;;;22.25;84.06;101578.16;4169225;28;20030;-76
2021/07/19 07:56:34;;;;;;;5.97;4.72;;;22.80;99.90;;;22.38;84.87;101583.50;4159286;28;20017;-76
2021/07/19 07:58:35;;;;;;;7.35;4.97;;;22.90;99.90;;;22.51;84.91;101577.25;4169638;28;20508;-76
2021/07/19 08:00:36;;;;;;;5.97;4.53;;;23.00;99.90;;;22.55;83.47;101587.34;4169408;28;20025;-76
2021/07/19 08:02:37;;;;;;;9.65;4.70;;;23.10;99.90;;;22.59;83.87;101579.69;4169480;28;20034;-76
2021/07/19 08:04:38;;;;;;;5.40;4.75;;;23.20;99.90;;;22.75;84.02;101584.59;4186237;28;20025;-76
2021/07/19 08:06:39;;;;;;;9.57;4.25;;;23.20;99.90;;;22.86;83.72;101591.16;4169375;28;20029;-76
2021/07/19 08:08:40;;;;;;;10.85;4.47;;;23.40;99.90;;;22.87;82.27;101593.66;4165335;28;20401;-76
2021/07/19 08:10:42;;;;;;;8.38;4.65;;;23.40;99.90;;;22.99;82.42;101596.47;4169252;28;20529;-76
2021/07/19 08:12:44;;;;;;;5.95;4.32;;;23.50;99.90;;;23.02;79.49;101599.56;4141503;28;20049;-76
2021/07/19 08:14:45;;;;;;;9.65;4.38;;;23.60;99.90;;;23.18;80.47;101595.50;4177814;28;20096;-76
2021/07/19 08:16:46;;;;;;;8.18;4.18;;;23.70;99.90;;;23.33;80.73;101589.78;4185719;28;20020;-76
2021/07/19 08:18:47;;;;;;;6.70;4.43;;;23.80;99.90;;;23.29;77.90;101586.72;4169337;28;20485;-76
2021/07/19 08:20:48;;;;;;;6.32;3.85;;;23.90;99.90;;;23.46;77.57;101589.72;4170498;28;20509;-76
2021/07/19 08:22:49;;;;;;;6.75;4.22;;;24.00;99.90;;;23.44;76.60;101581.06;4168987;28;20033;-76
2021/07/19 08:24:50;;;;;;;6.32;4.00;;;24.10;99.90;;;23.53;78.42;101587.81;4168904;28;20025;-76
2021/07/19 08:26:51;;;;;;;5.05;3.65;;;24.10;99.90;;;23.71;77.57;101593.25;4169006;28;20037;-76
2021/07/19 08:28:54;;;;;;;6.03;4.43;;;24.30;99.90;;;23.63;74.65;101588.94;4169079;28;20033;-77